Terminal Aerodrome Forecast
Issued by NWS

Home | Current Version | Previous Version | Text Only | Print | Product List | Glossary On
Versions: 1 2 3 4 5 6 7 8 9 10 11 12 13 14 15 16 17 18 19 20 21 22 23
000
FTUS43 KGRB 251700
TAFATW
TAF
KATW 251724Z 2518/2618 29016G24KT P6SM FEW120
     FM260000 28010KT P6SM SKC WS015/32035KT
     FM260500 28006KT P6SM SKC WS015/33030KT
     FM260900 28005KT P6SM SKC
     FM261500 27005KT P6SM SCT250=

USA.gov is the U.S. government's official web portal to all federal, state and local government web resources and services.